HELX

Luxor International Airport

Luxor, Egypt
TAF HELX 210500Z 2106/2212 VRB03KT 8000 NSC TEMPO 2106/2109 4000 HZ BECMG 2110/2112 34009KT
Issued Valid From Valid To
Apr-21 @ 05:00 UTC
(5 hours ago)
Apr-21 @ 06:00 UTC
(4 hours ago)
Apr-22 @ 12:00 UTC
(-1 days ago)
Apr-21 @ 06:00 to Apr-21 @ 10:00
TAF HELX 210500Z 2106/2212 VRB03KT 8000 NSC
Wind Visibility Clouds
Variable at 3 knots 7,998 meters
  • No significant clouds
Expired Click to View Apr-21 @ 06:00 to Apr-21 @ 09:00
TEMPO 2106/2109 4000 HZ
Visibility Conditions
4,007 meters
  • Haze
Becoming Apr-21 @ 10:00 to Apr-22 @ 12:00
BECMG 2110/2112 34009KT
Wind Visibility Clouds
340° at 9 knots 7,998 meters
  • No significant clouds
TAF HELX 210500Z 2106/2212 VRB03KT 8000 NSC TEMPO 2106/2109 4000 HZ BECMG 2110/2112 34009KT
Issued Apr-21 @ 05:00 UTC
(5 hours ago)
Valid From Apr-21 @ 06:00 UTC
(4 hours ago)
Valid To Apr-22 @ 12:00 UTC
(-1 days ago)
Apr-21 @ 06:00 - Apr-21 @ 10:00
Wind Visibility
Variable at 3 knots 7,998 meters
Clouds
  • No significant clouds
Apr-21 @ 06:00 - Apr-21 @ 09:00
Conditions
  • Haze
Becoming Apr-21 @ 10:00 - Apr-22 @ 12:00
Wind Visibility
340° at 9 knots 7,998 meters
Clouds
  • No significant clouds